sensor_id;sensor_type;location;lat;lon;timestamp;P1;durP1;ratioP1;P2;durP2;ratioP2
11255;SDS011;5685;52.384;13.420;2023-07-13T00:01:04;75.67;;;42.20;;
11255;SDS011;5685;52.384;13.420;2023-07-13T00:04:07;75.73;;;42.23;;
11255;SDS011;5685;52.384;13.420;2023-07-13T00:07:11;75.63;;;42.20;;
11255;SDS011;5685;52.384;13.420;2023-07-13T00:10:15;76.10;;;42.40;;
11255;SDS011;5685;52.384;13.420;2023-07-13T00:13:18;76.13;;;42.33;;
11255;SDS011;5685;52.384;13.420;2023-07-13T00:16:20;75.70;;;42.00;;
11255;SDS011;5685;52.384;13.420;2023-07-13T00:19:23;75.60;;;41.80;;
11255;SDS011;5685;52.384;13.420;2023-07-13T00:22:27;75.40;;;41.80;;
11255;SDS011;5685;52.384;13.420;2023-07-13T00:25:30;75.67;;;42.03;;
11255;SDS011;5685;52.384;13.420;2023-07-13T00:28:32;76.00;;;42.10;;
11255;SDS011;5685;52.384;13.420;2023-07-13T00:31:36;75.40;;;41.77;;
11255;SDS011;5685;52.384;13.420;2023-07-13T00:34:38;75.33;;;41.77;;
11255;SDS011;5685;52.384;13.420;2023-07-13T00:37:43;75.67;;;42.00;;
11255;SDS011;5685;52.384;13.420;2023-07-13T00:40:46;75.47;;;41.83;;
11255;SDS011;5685;52.384;13.420;2023-07-13T00:43:48;75.67;;;41.90;;
11255;SDS011;5685;52.384;13.420;2023-07-13T00:46:51;75.17;;;41.73;;
11255;SDS011;5685;52.384;13.420;2023-07-13T00:49:55;75.37;;;41.80;;
11255;SDS011;5685;52.384;13.420;2023-07-13T00:53:00;75.80;;;42.00;;
11255;SDS011;5685;52.384;13.420;2023-07-13T00:56:03;75.60;;;41.80;;
11255;SDS011;5685;52.384;13.420;2023-07-13T00:59:07;76.30;;;42.23;;
11255;SDS011;5685;52.384;13.420;2023-07-13T01:02:10;74.93;;;41.57;;
11255;SDS011;5685;52.384;13.420;2023-07-13T01:05:14;75.63;;;41.97;;
11255;SDS011;5685;52.384;13.420;2023-07-13T01:08:20;75.43;;;41.80;;
11255;SDS011;5685;52.384;13.420;2023-07-13T01:11:23;75.30;;;41.80;;
11255;SDS011;5685;52.384;13.420;2023-07-13T01:14:26;75.43;;;41.83;;
11255;SDS011;5685;52.384;13.420;2023-07-13T01:17:28;75.77;;;42.10;;
11255;SDS011;5685;52.384;13.420;2023-07-13T01:20:31;75.67;;;42.10;;
11255;SDS011;5685;52.384;13.420;2023-07-13T01:23:38;75.10;;;41.67;;
11255;SDS011;5685;52.384;13.420;2023-07-13T01:26:40;75.83;;;42.00;;
11255;SDS011;5685;52.384;13.420;2023-07-13T01:29:43;75.67;;;41.97;;
11255;SDS011;5685;52.384;13.420;2023-07-13T01:32:47;75.43;;;41.70;;
11255;SDS011;5685;52.384;13.420;2023-07-13T01:35:50;75.10;;;41.57;;
11255;SDS011;5685;52.384;13.420;2023-07-13T01:38:54;75.73;;;41.93;;
11255;SDS011;5685;52.384;13.420;2023-07-13T01:41:57;74.87;;;41.50;;
11255;SDS011;5685;52.384;13.420;2023-07-13T01:45:00;75.63;;;41.80;;
11255;SDS011;5685;52.384;13.420;2023-07-13T01:48:02;75.57;;;41.90;;
11255;SDS011;5685;52.384;13.420;2023-07-13T01:51:06;75.97;;;42.10;;
11255;SDS011;5685;52.384;13.420;2023-07-13T01:54:10;75.43;;;41.80;;
11255;SDS011;5685;52.384;13.420;2023-07-13T01:57:13;75.27;;;41.83;;
11255;SDS011;5685;52.384;13.420;2023-07-13T02:00:16;75.07;;;41.50;;
11255;SDS011;5685;52.384;13.420;2023-07-13T02:03:19;75.83;;;41.97;;
11255;SDS011;5685;52.384;13.420;2023-07-13T02:06:22;75.67;;;41.73;;
11255;SDS011;5685;52.384;13.420;2023-07-13T02:09:26;75.77;;;41.77;;
11255;SDS011;5685;52.384;13.420;2023-07-13T02:12:28;75.77;;;41.77;;
11255;SDS011;5685;52.384;13.420;2023-07-13T02:15:31;75.27;;;41.40;;
11255;SDS011;5685;52.384;13.420;2023-07-13T02:18:34;75.53;;;41.37;;
11255;SDS011;5685;52.384;13.420;2023-07-13T02:21:37;75.83;;;41.67;;
11255;SDS011;5685;52.384;13.420;2023-07-13T02:24:41;75.50;;;41.37;;
11255;SDS011;5685;52.384;13.420;2023-07-13T02:27:44;75.20;;;41.17;;
11255;SDS011;5685;52.384;13.420;2023-07-13T02:30:47;75.63;;;41.47;;
11255;SDS011;5685;52.384;13.420;2023-07-13T02:33:49;75.97;;;41.77;;
11255;SDS011;5685;52.384;13.420;2023-07-13T02:36:52;75.17;;;41.37;;
11255;SDS011;5685;52.384;13.420;2023-07-13T02:39:56;75.67;;;41.53;;
11255;SDS011;5685;52.384;13.420;2023-07-13T02:42:59;75.77;;;41.53;;
11255;SDS011;5685;52.384;13.420;2023-07-13T02:46:02;75.63;;;41.50;;
11255;SDS011;5685;52.384;13.420;2023-07-13T02:49:07;75.43;;;41.27;;
11255;SDS011;5685;52.384;13.420;2023-07-13T02:52:09;75.30;;;41.23;;
11255;SDS011;5685;52.384;13.420;2023-07-13T02:55:13;75.40;;;41.20;;
11255;SDS011;5685;52.384;13.420;2023-07-13T02:58:16;75.60;;;41.30;;
11255;SDS011;5685;52.384;13.420;2023-07-13T03:01:19;75.07;;;40.97;;
11255;SDS011;5685;52.384;13.420;2023-07-13T03:04:22;75.87;;;41.47;;
11255;SDS011;5685;52.384;13.420;2023-07-13T03:07:24;75.73;;;41.30;;
11255;SDS011;5685;52.384;13.420;2023-07-13T03:10:28;75.33;;;41.13;;
11255;SDS011;5685;52.384;13.420;2023-07-13T03:13:31;75.33;;;41.17;;
11255;SDS011;5685;52.384;13.420;2023-07-13T03:16:34;74.90;;;40.97;;
11255;SDS011;5685;52.384;13.420;2023-07-13T03:19:37;75.47;;;41.47;;
11255;SDS011;5685;52.384;13.420;2023-07-13T03:22:39;76.30;;;41.93;;
11255;SDS011;5685;52.384;13.420;2023-07-13T03:25:44;75.40;;;41.47;;
11255;SDS011;5685;52.384;13.420;2023-07-13T03:28:47;75.53;;;41.60;;
11255;SDS011;5685;52.384;13.420;2023-07-13T03:31:50;75.60;;;41.63;;
11255;SDS011;5685;52.384;13.420;2023-07-13T03:34:52;75.87;;;41.73;;
11255;SDS011;5685;52.384;13.420;2023-07-13T03:37:55;75.30;;;41.47;;
11255;SDS011;5685;52.384;13.420;2023-07-13T03:41:00;75.57;;;41.80;;
11255;SDS011;5685;52.384;13.420;2023-07-13T03:44:03;75.07;;;41.43;;
11255;SDS011;5685;52.384;13.420;2023-07-13T03:47:06;75.87;;;42.00;;
11255;SDS011;5685;52.384;13.420;2023-07-13T03:50:09;75.93;;;42.07;;
11255;SDS011;5685;52.384;13.420;2023-07-13T03:53:11;75.23;;;41.70;;
11255;SDS011;5685;52.384;13.420;2023-07-13T03:56:16;75.20;;;41.60;;
11255;SDS011;5685;52.384;13.420;2023-07-13T03:59:19;75.53;;;41.80;;
11255;SDS011;5685;52.384;13.420;2023-07-13T04:02:22;75.50;;;41.87;;
11255;SDS011;5685;52.384;13.420;2023-07-13T04:05:24;75.63;;;41.87;;
11255;SDS011;5685;52.384;13.420;2023-07-13T04:08:28;75.17;;;41.73;;
11255;SDS011;5685;52.384;13.420;2023-07-13T04:11:33;75.37;;;41.70;;
11255;SDS011;5685;52.384;13.420;2023-07-13T04:14:37;75.33;;;41.73;;
11255;SDS011;5685;52.384;13.420;2023-07-13T04:17:40;75.57;;;41.77;;
11255;SDS011;5685;52.384;13.420;2023-07-13T04:20:43;75.33;;;41.73;;
11255;SDS011;5685;52.384;13.420;2023-07-13T04:23:45;75.47;;;41.90;;
11255;SDS011;5685;52.384;13.420;2023-07-13T04:26:49;74.87;;;41.50;;
11255;SDS011;5685;52.384;13.420;2023-07-13T04:29:52;75.13;;;41.87;;
11255;SDS011;5685;52.384;13.420;2023-07-13T04:32:55;75.03;;;41.63;;
11255;SDS011;5685;52.384;13.420;2023-07-13T04:35:57;75.97;;;42.20;;
11255;SDS011;5685;52.384;13.420;2023-07-13T04:39:01;75.60;;;41.93;;
11255;SDS011;5685;52.384;13.420;2023-07-13T04:42:06;76.07;;;42.13;;
11255;SDS011;5685;52.384;13.420;2023-07-13T04:45:09;74.93;;;41.63;;
11255;SDS011;5685;52.384;13.420;2023-07-13T04:48:12;75.83;;;42.13;;
11255;SDS011;5685;52.384;13.420;2023-07-13T04:51:14;75.07;;;41.73;;
11255;SDS011;5685;52.384;13.420;2023-07-13T04:54:17;75.23;;;41.77;;
11255;SDS011;5685;52.384;13.420;2023-07-13T04:57:21;75.10;;;41.67;;
11255;SDS011;5685;52.384;13.420;2023-07-13T05:00:24;75.20;;;41.83;;
11255;SDS011;5685;52.384;13.420;2023-07-13T05:03:26;75.33;;;41.80;;
11255;SDS011;5685;52.384;13.420;2023-07-13T05:06:29;75.67;;;42.17;;
11255;SDS011;5685;52.384;13.420;2023-07-13T05:09:32;75.00;;;41.70;;
11255;SDS011;5685;52.384;13.420;2023-07-13T05:12:36;74.83;;;41.70;;
11255;SDS011;5685;52.384;13.420;2023-07-13T05:15:39;75.67;;;42.00;;
11255;SDS011;5685;52.384;13.420;2023-07-13T05:18:41;75.50;;;41.90;;
11255;SDS011;5685;52.384;13.420;2023-07-13T05:21:44;75.40;;;41.87;;
11255;SDS011;5685;52.384;13.420;2023-07-13T05:24:46;74.67;;;41.53;;
11255;SDS011;5685;52.384;13.420;2023-07-13T05:27:51;75.47;;;42.00;;
11255;SDS011;5685;52.384;13.420;2023-07-13T05:30:54;75.63;;;42.03;;
11255;SDS011;5685;52.384;13.420;2023-07-13T05:33:56;75.67;;;42.13;;
11255;SDS011;5685;52.384;13.420;2023-07-13T05:36:59;75.40;;;42.03;;
11255;SDS011;5685;52.384;13.420;2023-07-13T05:40:02;75.57;;;42.03;;
11255;SDS011;5685;52.384;13.420;2023-07-13T05:43:06;75.50;;;41.97;;
11255;SDS011;5685;52.384;13.420;2023-07-13T05:46:09;75.10;;;41.60;;
11255;SDS011;5685;52.384;13.420;2023-07-13T05:49:11;75.43;;;41.90;;
11255;SDS011;5685;52.384;13.420;2023-07-13T05:52:14;74.67;;;41.53;;
11255;SDS011;5685;52.384;13.420;2023-07-13T05:55:17;75.63;;;41.97;;
11255;SDS011;5685;52.384;13.420;2023-07-13T05:58:21;75.30;;;41.80;;
11255;SDS011;5685;52.384;13.420;2023-07-13T06:01:24;75.40;;;41.80;;
11255;SDS011;5685;52.384;13.420;2023-07-13T06:04:26;75.33;;;41.77;;
11255;SDS011;5685;52.384;13.420;2023-07-13T06:07:29;75.27;;;41.80;;
11255;SDS011;5685;52.384;13.420;2023-07-13T06:10:32;75.00;;;41.53;;
11255;SDS011;5685;52.384;13.420;2023-07-13T06:13:36;74.93;;;41.50;;
11255;SDS011;5685;52.384;13.420;2023-07-13T06:16:39;75.70;;;41.83;;
11255;SDS011;5685;52.384;13.420;2023-07-13T06:19:42;75.13;;;41.40;;
11255;SDS011;5685;52.384;13.420;2023-07-13T06:22:45;75.27;;;41.33;;
11255;SDS011;5685;52.384;13.420;2023-07-13T06:25:47;75.13;;;41.30;;
11255;SDS011;5685;52.384;13.420;2023-07-13T06:28:52;75.53;;;41.63;;
11255;SDS011;5685;52.384;13.420;2023-07-13T06:31:54;75.20;;;41.30;;
11255;SDS011;5685;52.384;13.420;2023-07-13T06:34:57;75.50;;;41.47;;
11255;SDS011;5685;52.384;13.420;2023-07-13T06:38:00;75.63;;;41.47;;
11255;SDS011;5685;52.384;13.420;2023-07-13T06:41:03;74.50;;;40.97;;
11255;SDS011;5685;52.384;13.420;2023-07-13T06:44:08;74.80;;;41.10;;
11255;SDS011;5685;52.384;13.420;2023-07-13T06:47:11;74.70;;;41.10;;
11255;SDS011;5685;52.384;13.420;2023-07-13T06:50:13;74.53;;;41.03;;
11255;SDS011;5685;52.384;13.420;2023-07-13T06:53:16;75.53;;;41.57;;
11255;SDS011;5685;52.384;13.420;2023-07-13T06:56:19;75.63;;;41.53;;
11255;SDS011;5685;52.384;13.420;2023-07-13T06:59:24;74.97;;;41.30;;
11255;SDS011;5685;52.384;13.420;2023-07-13T07:02:26;74.77;;;41.17;;
11255;SDS011;5685;52.384;13.420;2023-07-13T07:05:29;75.40;;;41.43;;
11255;SDS011;5685;52.384;13.420;2023-07-13T07:08:32;75.50;;;41.77;;
11255;SDS011;5685;52.384;13.420;2023-07-13T07:11:34;75.17;;;41.33;;
11255;SDS011;5685;52.384;13.420;2023-07-13T07:14:38;75.43;;;41.53;;
11255;SDS011;5685;52.384;13.420;2023-07-13T07:17:41;75.37;;;41.53;;
11255;SDS011;5685;52.384;13.420;2023-07-13T07:20:43;75.43;;;41.60;;
11255;SDS011;5685;52.384;13.420;2023-07-13T07:23:46;75.40;;;41.60;;
11255;SDS011;5685;52.384;13.420;2023-07-13T07:26:49;75.77;;;41.87;;
11255;SDS011;5685;52.384;13.420;2023-07-13T07:29:53;75.37;;;41.67;;
11255;SDS011;5685;52.384;13.420;2023-07-13T07:32:57;75.47;;;41.77;;
11255;SDS011;5685;52.384;13.420;2023-07-13T07:36:01;75.60;;;41.80;;
11255;SDS011;5685;52.384;13.420;2023-07-13T07:39:04;75.37;;;41.63;;
11255;SDS011;5685;52.384;13.420;2023-07-13T07:42:07;75.27;;;41.63;;
11255;SDS011;5685;52.384;13.420;2023-07-13T07:45:11;75.77;;;41.93;;
11255;SDS011;5685;52.384;13.420;2023-07-13T07:48:14;74.97;;;41.40;;
11255;SDS011;5685;52.384;13.420;2023-07-13T07:51:17;75.20;;;41.50;;
11255;SDS011;5685;52.384;13.420;2023-07-13T07:54:19;75.30;;;41.60;;
11255;SDS011;5685;52.384;13.420;2023-07-13T07:57:22;75.47;;;41.70;;
11255;SDS011;5685;52.384;13.420;2023-07-13T08:00:26;75.00;;;41.60;;
11255;SDS011;5685;52.384;13.420;2023-07-13T08:03:30;75.17;;;41.53;;
11255;SDS011;5685;52.384;13.420;2023-07-13T08:06:33;75.23;;;41.60;;
11255;SDS011;5685;52.384;13.420;2023-07-13T08:09:35;75.47;;;41.70;;
11255;SDS011;5685;52.384;13.420;2023-07-13T08:12:38;74.87;;;41.53;;
11255;SDS011;5685;52.384;13.420;2023-07-13T08:15:43;75.20;;;41.77;;
11255;SDS011;5685;52.384;13.420;2023-07-13T08:18:46;75.13;;;41.70;;
11255;SDS011;5685;52.384;13.420;2023-07-13T08:21:48;75.03;;;41.53;;
11255;SDS011;5685;52.384;13.420;2023-07-13T08:24:51;75.63;;;42.00;;
11255;SDS011;5685;52.384;13.420;2023-07-13T08:27:56;75.40;;;41.97;;
11255;SDS011;5685;52.384;13.420;2023-07-13T08:31:01;75.47;;;41.97;;
11255;SDS011;5685;52.384;13.420;2023-07-13T08:34:04;75.50;;;41.87;;
11255;SDS011;5685;52.384;13.420;2023-07-13T08:37:06;75.47;;;41.93;;
11255;SDS011;5685;52.384;13.420;2023-07-13T08:40:09;75.33;;;41.83;;
11255;SDS011;5685;52.384;13.420;2023-07-13T08:43:13;75.20;;;41.70;;
11255;SDS011;5685;52.384;13.420;2023-07-13T08:46:21;75.03;;;41.70;;
11255;SDS011;5685;52.384;13.420;2023-07-13T08:49:27;75.07;;;41.60;;
11255;SDS011;5685;52.384;13.420;2023-07-13T08:52:31;74.90;;;41.60;;
11255;SDS011;5685;52.384;13.420;2023-07-13T08:55:36;74.23;;;41.23;;
11255;SDS011;5685;52.384;13.420;2023-07-13T08:58:39;75.23;;;41.70;;
11255;SDS011;5685;52.384;13.420;2023-07-13T09:01:51;74.80;;;41.70;;
11255;SDS011;5685;52.384;13.420;2023-07-13T09:05:02;75.60;;;41.90;;
11255;SDS011;5685;52.384;13.420;2023-07-13T09:08:26;74.83;;;41.67;;
11255;SDS011;5685;52.384;13.420;2023-07-13T09:11:40;75.03;;;41.70;;
11255;SDS011;5685;52.384;13.420;2023-07-13T09:14:47;75.43;;;41.87;;
11255;SDS011;5685;52.384;13.420;2023-07-13T09:17:53;74.83;;;41.60;;
11255;SDS011;5685;52.384;13.420;2023-07-13T09:20:59;75.63;;;42.00;;
11255;SDS011;5685;52.384;13.420;2023-07-13T09:24:19;75.40;;;41.90;;
11255;SDS011;5685;52.384;13.420;2023-07-13T09:27:35;75.63;;;42.00;;
11255;SDS011;5685;52.384;13.420;2023-07-13T09:30:50;75.43;;;41.80;;
11255;SDS011;5685;52.384;13.420;2023-07-13T09:33:56;75.47;;;41.90;;
11255;SDS011;5685;52.384;13.420;2023-07-13T09:36:58;74.57;;;41.53;;
11255;SDS011;5685;52.384;13.420;2023-07-13T09:40:01;74.90;;;41.70;;
11255;SDS011;5685;52.384;13.420;2023-07-13T09:43:06;75.07;;;41.80;;
11255;SDS011;5685;52.384;13.420;2023-07-13T09:46:19;74.10;;;41.37;;
11255;SDS011;5685;52.384;13.420;2023-07-13T09:49:25;74.93;;;41.67;;
11255;SDS011;5685;52.384;13.420;2023-07-13T09:52:38;75.10;;;41.80;;
11255;SDS011;5685;52.384;13.420;2023-07-13T09:55:43;74.80;;;41.73;;
11255;SDS011;5685;52.384;13.420;2023-07-13T09:58:46;74.57;;;41.53;;
11255;SDS011;5685;52.384;13.420;2023-07-13T10:01:49;74.80;;;41.70;;
11255;SDS011;5685;52.384;13.420;2023-07-13T10:04:56;75.33;;;41.97;;
11255;SDS011;5685;52.384;13.420;2023-07-13T10:08:00;74.77;;;41.63;;
11255;SDS011;5685;52.384;13.420;2023-07-13T10:11:12;75.17;;;41.87;;
11255;SDS011;5685;52.384;13.420;2023-07-13T10:14:20;75.23;;;41.93;;
11255;SDS011;5685;52.384;13.420;2023-07-13T10:17:26;75.70;;;42.17;;
11255;SDS011;5685;52.384;13.420;2023-07-13T10:20:33;74.63;;;41.63;;
11255;SDS011;5685;52.384;13.420;2023-07-13T10:23:35;75.10;;;41.83;;
11255;SDS011;5685;52.384;13.420;2023-07-13T10:26:39;75.07;;;41.73;;
11255;SDS011;5685;52.384;13.420;2023-07-13T10:29:48;75.20;;;41.90;;
11255;SDS011;5685;52.384;13.420;2023-07-13T10:32:51;74.53;;;41.60;;
11255;SDS011;5685;52.384;13.420;2023-07-13T10:35:57;75.00;;;41.70;;
11255;SDS011;5685;52.384;13.420;2023-07-13T10:39:05;75.50;;;42.10;;
11255;SDS011;5685;52.384;13.420;2023-07-13T10:42:08;74.67;;;41.67;;
11255;SDS011;5685;52.384;13.420;2023-07-13T10:45:15;75.07;;;41.83;;
11255;SDS011;5685;52.384;13.420;2023-07-13T10:48:21;75.37;;;42.07;;
11255;SDS011;5685;52.384;13.420;2023-07-13T10:51:25;75.23;;;41.93;;
11255;SDS011;5685;52.384;13.420;2023-07-13T10:54:30;75.93;;;42.27;;
11255;SDS011;5685;52.384;13.420;2023-07-13T10:57:40;74.77;;;41.73;;
11255;SDS011;5685;52.384;13.420;2023-07-13T11:00:46;74.50;;;41.53;;
11255;SDS011;5685;52.384;13.420;2023-07-13T11:03:53;75.40;;;42.00;;
11255;SDS011;5685;52.384;13.420;2023-07-13T11:07:10;74.37;;;41.50;;
11255;SDS011;5685;52.384;13.420;2023-07-13T11:13:58;75.97;;;42.20;;
11255;SDS011;5685;52.384;13.420;2023-07-13T11:20:36;74.57;;;41.60;;
11255;SDS011;5685;52.384;13.420;2023-07-13T11:23:43;75.40;;;41.93;;
11255;SDS011;5685;52.384;13.420;2023-07-13T11:26:50;75.27;;;42.07;;
11255;SDS011;5685;52.384;13.420;2023-07-13T11:29:56;74.07;;;41.40;;
11255;SDS011;5685;52.384;13.420;2023-07-13T11:33:24;75.13;;;41.97;;
11255;SDS011;5685;52.384;13.420;2023-07-13T11:36:31;75.23;;;42.13;;
11255;SDS011;5685;52.384;13.420;2023-07-13T11:39:41;74.80;;;41.97;;
11255;SDS011;5685;52.384;13.420;2023-07-13T11:42:44;74.93;;;42.00;;
11255;SDS011;5685;52.384;13.420;2023-07-13T11:45:47;75.23;;;42.27;;
11255;SDS011;5685;52.384;13.420;2023-07-13T11:48:50;75.27;;;42.10;;
11255;SDS011;5685;52.384;13.420;2023-07-13T11:51:53;75.57;;;42.23;;
11255;SDS011;5685;52.384;13.420;2023-07-13T11:54:57;74.73;;;41.90;;
11255;SDS011;5685;52.384;13.420;2023-07-13T11:58:03;74.63;;;41.90;;
11255;SDS011;5685;52.384;13.420;2023-07-13T12:01:05;75.00;;;42.13;;
11255;SDS011;5685;52.384;13.420;2023-07-13T12:04:18;75.13;;;42.20;;
11255;SDS011;5685;52.384;13.420;2023-07-13T12:07:23;74.87;;;42.00;;
11255;SDS011;5685;52.384;13.420;2023-07-13T12:10:28;74.90;;;42.10;;
11255;SDS011;5685;52.384;13.420;2023-07-13T12:13:36;75.50;;;42.33;;
11255;SDS011;5685;52.384;13.420;2023-07-13T12:16:39;75.10;;;42.13;;
11255;SDS011;5685;52.384;13.420;2023-07-13T12:19:42;75.27;;;42.20;;
11255;SDS011;5685;52.384;13.420;2023-07-13T12:22:45;74.93;;;42.20;;
11255;SDS011;5685;52.384;13.420;2023-07-13T12:25:50;75.37;;;42.37;;
11255;SDS011;5685;52.384;13.420;2023-07-13T12:28:53;74.83;;;42.10;;
11255;SDS011;5685;52.384;13.420;2023-07-13T12:31:56;74.90;;;42.07;;
11255;SDS011;5685;52.384;13.420;2023-07-13T12:35:02;75.13;;;42.27;;
11255;SDS011;5685;52.384;13.420;2023-07-13T12:38:15;74.97;;;42.10;;
11255;SDS011;5685;52.384;13.420;2023-07-13T12:41:23;74.87;;;42.00;;
11255;SDS011;5685;52.384;13.420;2023-07-13T12:44:28;74.63;;;41.93;;
11255;SDS011;5685;52.384;13.420;2023-07-13T12:47:32;75.17;;;42.20;;
11255;SDS011;5685;52.384;13.420;2023-07-13T12:50:45;74.80;;;42.00;;
11255;SDS011;5685;52.384;13.420;2023-07-13T12:53:50;74.43;;;41.70;;
11255;SDS011;5685;52.384;13.420;2023-07-13T12:57:00;74.77;;;42.00;;
11255;SDS011;5685;52.384;13.420;2023-07-13T13:00:04;75.23;;;42.30;;
11255;SDS011;5685;52.384;13.420;2023-07-13T13:03:13;75.47;;;42.20;;
11255;SDS011;5685;52.384;13.420;2023-07-13T13:06:24;75.27;;;42.33;;
11255;SDS011;5685;52.384;13.420;2023-07-13T13:09:28;75.03;;;42.13;;
11255;SDS011;5685;52.384;13.420;2023-07-13T13:12:32;75.03;;;42.03;;
11255;SDS011;5685;52.384;13.420;2023-07-13T13:15:34;75.07;;;42.17;;
11255;SDS011;5685;52.384;13.420;2023-07-13T13:18:38;75.97;;;42.60;;
11255;SDS011;5685;52.384;13.420;2023-07-13T13:21:42;75.43;;;42.40;;
11255;SDS011;5685;52.384;13.420;2023-07-13T13:24:45;75.33;;;42.20;;
11255;SDS011;5685;52.384;13.420;2023-07-13T13:27:50;75.27;;;42.13;;
11255;SDS011;5685;52.384;13.420;2023-07-13T13:30:54;75.30;;;42.23;;
11255;SDS011;5685;52.384;13.420;2023-07-13T13:33:56;75.30;;;42.20;;
11255;SDS011;5685;52.384;13.420;2023-07-13T13:36:59;74.97;;;42.20;;
11255;SDS011;5685;52.384;13.420;2023-07-13T13:40:02;75.20;;;42.23;;
11255;SDS011;5685;52.384;13.420;2023-07-13T13:43:12;75.13;;;42.23;;
11255;SDS011;5685;52.384;13.420;2023-07-13T13:46:17;75.03;;;42.13;;
11255;SDS011;5685;52.384;13.420;2023-07-13T13:49:23;75.67;;;42.57;;
11255;SDS011;5685;52.384;13.420;2023-07-13T13:52:26;75.13;;;42.17;;
11255;SDS011;5685;52.384;13.420;2023-07-13T13:55:29;75.13;;;42.27;;
11255;SDS011;5685;52.384;13.420;2023-07-13T13:58:33;75.63;;;42.60;;
11255;SDS011;5685;52.384;13.420;2023-07-13T14:01:36;75.50;;;42.43;;
11255;SDS011;5685;52.384;13.420;2023-07-13T14:04:39;75.07;;;42.23;;
11255;SDS011;5685;52.384;13.420;2023-07-13T14:07:42;75.60;;;42.50;;
11255;SDS011;5685;52.384;13.420;2023-07-13T14:10:45;75.60;;;42.50;;
11255;SDS011;5685;52.384;13.420;2023-07-13T14:13:52;74.77;;;42.17;;
11255;SDS011;5685;52.384;13.420;2023-07-13T14:16:55;75.30;;;42.33;;
11255;SDS011;5685;52.384;13.420;2023-07-13T14:19:58;75.40;;;42.43;;
11255;SDS011;5685;52.384;13.420;2023-07-13T14:23:01;75.57;;;42.60;;
11255;SDS011;5685;52.384;13.420;2023-07-13T14:26:04;74.90;;;42.20;;
11255;SDS011;5685;52.384;13.420;2023-07-13T14:29:14;75.33;;;42.43;;
11255;SDS011;5685;52.384;13.420;2023-07-13T14:32:18;75.73;;;42.60;;
11255;SDS011;5685;52.384;13.420;2023-07-13T14:35:21;75.60;;;42.57;;
11255;SDS011;5685;52.384;13.420;2023-07-13T14:38:24;75.43;;;42.67;;
11255;SDS011;5685;52.384;13.420;2023-07-13T14:41:27;74.83;;;42.10;;
11255;SDS011;5685;52.384;13.420;2023-07-13T14:44:34;75.30;;;42.47;;
11255;SDS011;5685;52.384;13.420;2023-07-13T14:47:37;75.37;;;42.53;;
11255;SDS011;5685;52.384;13.420;2023-07-13T14:50:39;75.37;;;42.57;;
11255;SDS011;5685;52.384;13.420;2023-07-13T14:53:42;75.53;;;42.67;;
11255;SDS011;5685;52.384;13.420;2023-07-13T14:56:44;75.77;;;42.80;;
11255;SDS011;5685;52.384;13.420;2023-07-13T14:59:48;75.70;;;42.70;;
11255;SDS011;5685;52.384;13.420;2023-07-13T15:02:52;75.57;;;42.57;;
11255;SDS011;5685;52.384;13.420;2023-07-13T15:05:56;75.17;;;42.47;;
11255;SDS011;5685;52.384;13.420;2023-07-13T15:08:58;75.37;;;42.47;;
11255;SDS011;5685;52.384;13.420;2023-07-13T15:12:01;75.87;;;42.77;;
11255;SDS011;5685;52.384;13.420;2023-07-13T15:15:07;75.37;;;42.50;;
11255;SDS011;5685;52.384;13.420;2023-07-13T15:18:10;75.17;;;42.40;;
11255;SDS011;5685;52.384;13.420;2023-07-13T15:21:15;75.03;;;42.43;;
11255;SDS011;5685;52.384;13.420;2023-07-13T15:24:21;75.40;;;42.50;;
11255;SDS011;5685;52.384;13.420;2023-07-13T15:27:23;75.63;;;42.67;;
11255;SDS011;5685;52.384;13.420;2023-07-13T15:30:29;75.27;;;42.57;;
11255;SDS011;5685;52.384;13.420;2023-07-13T15:33:33;75.70;;;42.73;;
11255;SDS011;5685;52.384;13.420;2023-07-13T15:36:37;75.80;;;42.80;;
11255;SDS011;5685;52.384;13.420;2023-07-13T15:39:40;75.40;;;42.77;;
11255;SDS011;5685;52.384;13.420;2023-07-13T15:42:43;75.33;;;42.60;;
11255;SDS011;5685;52.384;13.420;2023-07-13T15:45:47;75.10;;;42.50;;
11255;SDS011;5685;52.384;13.420;2023-07-13T15:48:51;76.00;;;43.00;;
11255;SDS011;5685;52.384;13.420;2023-07-13T15:51:55;75.33;;;42.67;;
11255;SDS011;5685;52.384;13.420;2023-07-13T15:54:57;75.40;;;42.73;;
11255;SDS011;5685;52.384;13.420;2023-07-13T15:58:01;75.10;;;42.53;;
11255;SDS011;5685;52.384;13.420;2023-07-13T16:01:08;75.63;;;42.93;;
11255;SDS011;5685;52.384;13.420;2023-07-13T16:04:12;74.83;;;42.43;;
11255;SDS011;5685;52.384;13.420;2023-07-13T16:07:15;75.20;;;42.67;;
11255;SDS011;5685;52.384;13.420;2023-07-13T16:10:29;75.43;;;42.80;;
11255;SDS011;5685;52.384;13.420;2023-07-13T16:13:34;75.80;;;42.83;;
11255;SDS011;5685;52.384;13.420;2023-07-13T16:16:40;75.87;;;43.00;;
11255;SDS011;5685;52.384;13.420;2023-07-13T16:19:44;75.23;;;42.67;;
11255;SDS011;5685;52.384;13.420;2023-07-13T16:22:48;75.47;;;42.77;;
11255;SDS011;5685;52.384;13.420;2023-07-13T16:25:52;75.17;;;42.77;;
11255;SDS011;5685;52.384;13.420;2023-07-13T16:28:55;75.53;;;42.83;;
11255;SDS011;5685;52.384;13.420;2023-07-13T16:32:03;75.53;;;42.90;;
11255;SDS011;5685;52.384;13.420;2023-07-13T16:35:07;75.40;;;42.87;;
11255;SDS011;5685;52.384;13.420;2023-07-13T16:38:13;75.23;;;42.60;;
11255;SDS011;5685;52.384;13.420;2023-07-13T16:41:16;75.27;;;42.83;;
11255;SDS011;5685;52.384;13.420;2023-07-13T16:44:20;75.37;;;42.73;;
11255;SDS011;5685;52.384;13.420;2023-07-13T16:47:24;75.93;;;43.03;;
11255;SDS011;5685;52.384;13.420;2023-07-13T16:50:29;76.03;;;43.13;;
11255;SDS011;5685;52.384;13.420;2023-07-13T16:53:34;75.80;;;42.93;;
11255;SDS011;5685;52.384;13.420;2023-07-13T16:56:36;75.97;;;43.10;;
11255;SDS011;5685;52.384;13.420;2023-07-13T16:59:39;75.83;;;42.97;;
11255;SDS011;5685;52.384;13.420;2023-07-13T17:02:44;75.17;;;42.70;;
11255;SDS011;5685;52.384;13.420;2023-07-13T17:05:47;75.47;;;42.77;;
11255;SDS011;5685;52.384;13.420;2023-07-13T17:08:52;75.07;;;42.57;;
11255;SDS011;5685;52.384;13.420;2023-07-13T17:11:55;75.43;;;42.70;;
11255;SDS011;5685;52.384;13.420;2023-07-13T17:15:00;74.47;;;42.47;;
11255;SDS011;5685;52.384;13.420;2023-07-13T17:18:11;75.60;;;42.83;;
11255;SDS011;5685;52.384;13.420;2023-07-13T17:21:15;75.53;;;42.73;;
11255;SDS011;5685;52.384;13.420;2023-07-13T17:24:18;75.07;;;42.60;;
11255;SDS011;5685;52.384;13.420;2023-07-13T17:27:24;75.20;;;42.70;;
11255;SDS011;5685;52.384;13.420;2023-07-13T17:30:27;75.67;;;42.90;;
11255;SDS011;5685;52.384;13.420;2023-07-13T17:33:32;75.37;;;42.67;;
11255;SDS011;5685;52.384;13.420;2023-07-13T17:36:37;75.67;;;42.50;;
11255;SDS011;5685;52.384;13.420;2023-07-13T17:39:39;74.93;;;42.03;;
11255;SDS011;5685;52.384;13.420;2023-07-13T17:42:42;75.77;;;42.33;;
11255;SDS011;5685;52.384;13.420;2023-07-13T17:45:44;74.53;;;41.57;;
11255;SDS011;5685;52.384;13.420;2023-07-13T17:48:49;75.07;;;41.70;;
11255;SDS011;5685;52.384;13.420;2023-07-13T17:51:53;74.93;;;41.60;;
11255;SDS011;5685;52.384;13.420;2023-07-13T17:54:56;74.43;;;41.23;;
11255;SDS011;5685;52.384;13.420;2023-07-13T17:58:01;74.83;;;41.50;;
11255;SDS011;5685;52.384;13.420;2023-07-13T18:01:04;74.23;;;41.13;;
11255;SDS011;5685;52.384;13.420;2023-07-13T18:04:11;74.40;;;41.20;;